sensor_id;sensor_type;location;lat;lon;timestamp;P1;durP1;ratioP1;P2;durP2;ratioP2
51664;SDS011;37751;52.408;12.536;2023-06-22T00:00:26;10.10;;;7.80;;
51664;SDS011;37751;52.408;12.536;2023-06-22T00:02:54;8.35;;;7.40;;
51664;SDS011;37751;52.408;12.536;2023-06-22T00:05:22;10.95;;;8.15;;
51664;SDS011;37751;52.408;12.536;2023-06-22T00:07:50;8.98;;;8.07;;
51664;SDS011;37751;52.408;12.536;2023-06-22T00:10:18;9.10;;;8.18;;
51664;SDS011;37751;52.408;12.536;2023-06-22T00:12:46;8.80;;;8.00;;
51664;SDS011;37751;52.408;12.536;2023-06-22T00:15:14;14.73;;;9.30;;
51664;SDS011;37751;52.408;12.536;2023-06-22T00:17:50;11.10;;;8.75;;
51664;SDS011;37751;52.408;12.536;2023-06-22T00:20:18;9.77;;;8.77;;
51664;SDS011;37751;52.408;12.536;2023-06-22T00:22:46;9.70;;;8.75;;
51664;SDS011;37751;52.408;12.536;2023-06-22T00:25:17;13.80;;;9.27;;
51664;SDS011;37751;52.408;12.536;2023-06-22T00:27:45;9.68;;;8.68;;
51664;SDS011;37751;52.408;12.536;2023-06-22T00:30:13;10.55;;;8.00;;
51664;SDS011;37751;52.408;12.536;2023-06-22T00:32:43;10.13;;;8.70;;
51664;SDS011;37751;52.408;12.536;2023-06-22T00:35:14;11.60;;;9.00;;
51664;SDS011;37751;52.408;12.536;2023-06-22T00:37:42;12.25;;;8.38;;
51664;SDS011;37751;52.408;12.536;2023-06-22T00:40:10;11.02;;;8.57;;
51664;SDS011;37751;52.408;12.536;2023-06-22T00:42:39;8.70;;;7.75;;
51664;SDS011;37751;52.408;12.536;2023-06-22T00:45:08;8.70;;;7.57;;
51664;SDS011;37751;52.408;12.536;2023-06-22T00:47:36;8.70;;;7.28;;
51664;SDS011;37751;52.408;12.536;2023-06-22T00:50:06;8.52;;;6.97;;
51664;SDS011;37751;52.408;12.536;2023-06-22T00:52:46;9.70;;;7.22;;
51664;SDS011;37751;52.408;12.536;2023-06-22T00:55:28;7.15;;;6.28;;
51664;SDS011;37751;52.408;12.536;2023-06-22T00:57:56;7.80;;;7.10;;
51664;SDS011;37751;52.408;12.536;2023-06-22T01:00:24;8.52;;;6.97;;
51664;SDS011;37751;52.408;12.536;2023-06-22T01:02:54;13.10;;;6.90;;
51664;SDS011;37751;52.408;12.536;2023-06-22T01:05:25;7.30;;;6.70;;
51664;SDS011;37751;52.408;12.536;2023-06-22T01:11:45;7.03;;;6.32;;
51664;SDS011;37751;52.408;12.536;2023-06-22T01:16:40;8.73;;;6.05;;
51664;SDS011;37751;52.408;12.536;2023-06-22T01:22:19;8.20;;;6.95;;
51664;SDS011;37751;52.408;12.536;2023-06-22T01:30:14;11.27;;;7.28;;
51664;SDS011;37751;52.408;12.536;2023-06-22T01:32:44;10.32;;;6.85;;
51664;SDS011;37751;52.408;12.536;2023-06-22T01:35:13;9.23;;;7.05;;
51664;SDS011;37751;52.408;12.536;2023-06-22T01:37:42;8.45;;;6.80;;
51664;SDS011;37751;52.408;12.536;2023-06-22T01:40:14;9.80;;;6.57;;
51664;SDS011;37751;52.408;12.536;2023-06-22T01:42:43;9.20;;;7.03;;
51664;SDS011;37751;52.408;12.536;2023-06-22T01:45:12;9.57;;;6.97;;
51664;SDS011;37751;52.408;12.536;2023-06-22T01:47:40;8.93;;;7.57;;
51664;SDS011;37751;52.408;12.536;2023-06-22T01:50:09;10.95;;;7.90;;
51664;SDS011;37751;52.408;12.536;2023-06-22T01:52:39;8.65;;;7.75;;
51664;SDS011;37751;52.408;12.536;2023-06-22T01:55:07;12.88;;;8.02;;
51664;SDS011;37751;52.408;12.536;2023-06-22T01:57:35;9.55;;;8.50;;
51664;SDS011;37751;52.408;12.536;2023-06-22T02:00:12;9.27;;;8.38;;
51664;SDS011;37751;52.408;12.536;2023-06-22T02:03:00;10.18;;;8.20;;
51664;SDS011;37751;52.408;12.536;2023-06-22T02:05:34;10.77;;;9.05;;
51664;SDS011;37751;52.408;12.536;2023-06-22T02:08:46;9.85;;;8.10;;
51664;SDS011;37751;52.408;12.536;2023-06-22T02:11:09;9.45;;;8.32;;
51664;SDS011;37751;52.408;12.536;2023-06-22T02:13:39;10.40;;;8.48;;
51664;SDS011;37751;52.408;12.536;2023-06-22T02:16:10;10.77;;;8.77;;
51664;SDS011;37751;52.408;12.536;2023-06-22T02:18:45;10.48;;;8.45;;
51664;SDS011;37751;52.408;12.536;2023-06-22T02:21:20;9.60;;;8.50;;
51664;SDS011;37751;52.408;12.536;2023-06-22T02:23:49;10.32;;;8.68;;
51664;SDS011;37751;52.408;12.536;2023-06-22T02:26:17;12.88;;;9.02;;
51664;SDS011;37751;52.408;12.536;2023-06-22T02:28:45;13.32;;;8.82;;
51664;SDS011;37751;52.408;12.536;2023-06-22T02:31:17;12.88;;;8.50;;
51664;SDS011;37751;52.408;12.536;2023-06-22T02:33:45;9.88;;;8.15;;
51664;SDS011;37751;52.408;12.536;2023-06-22T02:36:13;10.60;;;8.25;;
51664;SDS011;37751;52.408;12.536;2023-06-22T02:38:41;9.85;;;8.15;;
51664;SDS011;37751;52.408;12.536;2023-06-22T02:41:15;13.40;;;9.23;;
51664;SDS011;37751;52.408;12.536;2023-06-22T02:43:48;12.40;;;8.85;;
51664;SDS011;37751;52.408;12.536;2023-06-22T02:46:19;14.75;;;9.50;;
51664;SDS011;37751;52.408;12.536;2023-06-22T02:48:48;12.10;;;9.07;;
51664;SDS011;37751;52.408;12.536;2023-06-22T02:51:16;11.18;;;9.27;;
51664;SDS011;37751;52.408;12.536;2023-06-22T02:53:44;10.02;;;8.73;;
51664;SDS011;37751;52.408;12.536;2023-06-22T02:56:14;9.35;;;8.35;;
51664;SDS011;37751;52.408;12.536;2023-06-22T02:58:43;10.13;;;8.95;;
51664;SDS011;37751;52.408;12.536;2023-06-22T03:01:12;15.75;;;9.07;;
51664;SDS011;37751;52.408;12.536;2023-06-22T03:03:45;10.68;;;8.05;;
51664;SDS011;37751;52.408;12.536;2023-06-22T03:06:13;12.00;;;8.25;;
51664;SDS011;37751;52.408;12.536;2023-06-22T03:08:42;12.77;;;9.60;;
51664;SDS011;37751;52.408;12.536;2023-06-22T03:11:10;10.85;;;7.93;;
51664;SDS011;37751;52.408;12.536;2023-06-22T03:13:38;10.48;;;8.50;;
51664;SDS011;37751;52.408;12.536;2023-06-22T03:16:07;11.68;;;8.68;;
51664;SDS011;37751;52.408;12.536;2023-06-22T03:18:35;10.23;;;8.98;;
51664;SDS011;37751;52.408;12.536;2023-06-22T03:21:02;12.82;;;8.32;;
51664;SDS011;37751;52.408;12.536;2023-06-22T03:23:31;9.77;;;8.70;;
51664;SDS011;37751;52.408;12.536;2023-06-22T03:25:59;10.07;;;8.88;;
51664;SDS011;37751;52.408;12.536;2023-06-22T03:28:27;11.10;;;9.05;;
51664;SDS011;37751;52.408;12.536;2023-06-22T03:30:54;10.48;;;9.15;;
51664;SDS011;37751;52.408;12.536;2023-06-22T03:33:25;9.68;;;8.43;;
51664;SDS011;37751;52.408;12.536;2023-06-22T03:35:53;10.57;;;8.85;;
51664;SDS011;37751;52.408;12.536;2023-06-22T03:38:21;14.50;;;9.30;;
51664;SDS011;37751;52.408;12.536;2023-06-22T03:40:54;13.50;;;9.65;;
51664;SDS011;37751;52.408;12.536;2023-06-22T03:43:22;14.45;;;9.00;;
51664;SDS011;37751;52.408;12.536;2023-06-22T03:45:50;11.10;;;9.60;;
51664;SDS011;37751;52.408;12.536;2023-06-22T03:48:18;12.52;;;9.27;;
51664;SDS011;37751;52.408;12.536;2023-06-22T03:50:46;13.07;;;9.18;;
51664;SDS011;37751;52.408;12.536;2023-06-22T03:53:14;13.73;;;9.60;;
51664;SDS011;37751;52.408;12.536;2023-06-22T03:55:48;13.55;;;9.75;;
51664;SDS011;37751;52.408;12.536;2023-06-22T03:58:20;14.18;;;10.05;;
51664;SDS011;37751;52.408;12.536;2023-06-22T04:00:49;11.65;;;9.55;;
51664;SDS011;37751;52.408;12.536;2023-06-22T04:03:21;15.52;;;10.50;;
51664;SDS011;37751;52.408;12.536;2023-06-22T04:05:49;11.75;;;10.18;;
51664;SDS011;37751;52.408;12.536;2023-06-22T04:08:17;13.85;;;10.63;;
51664;SDS011;37751;52.408;12.536;2023-06-22T04:10:45;15.18;;;10.82;;
51664;SDS011;37751;52.408;12.536;2023-06-22T04:13:13;16.75;;;10.43;;
51664;SDS011;37751;52.408;12.536;2023-06-22T04:15:41;18.95;;;10.88;;
51664;SDS011;37751;52.408;12.536;2023-06-22T04:18:08;16.33;;;11.75;;
51664;SDS011;37751;52.408;12.536;2023-06-22T04:20:36;21.48;;;12.38;;
51664;SDS011;37751;52.408;12.536;2023-06-22T04:23:04;16.95;;;12.15;;
51664;SDS011;37751;52.408;12.536;2023-06-22T04:25:32;13.38;;;11.82;;
51664;SDS011;37751;52.408;12.536;2023-06-22T04:28:01;14.60;;;11.38;;
51664;SDS011;37751;52.408;12.536;2023-06-22T04:30:32;16.50;;;11.73;;
51664;SDS011;37751;52.408;12.536;2023-06-22T04:33:00;12.68;;;11.38;;
51664;SDS011;37751;52.408;12.536;2023-06-22T04:35:28;17.17;;;12.70;;
51664;SDS011;37751;52.408;12.536;2023-06-22T04:37:57;17.55;;;11.73;;
51664;SDS011;37751;52.408;12.536;2023-06-22T04:40:26;16.23;;;12.07;;
51664;SDS011;37751;52.408;12.536;2023-06-22T04:42:54;17.83;;;12.52;;
51664;SDS011;37751;52.408;12.536;2023-06-22T04:45:22;14.27;;;11.35;;
51664;SDS011;37751;52.408;12.536;2023-06-22T04:47:50;14.95;;;12.40;;
51664;SDS011;37751;52.408;12.536;2023-06-22T04:50:18;16.42;;;13.07;;
51664;SDS011;37751;52.408;12.536;2023-06-22T04:52:48;19.73;;;13.02;;
51664;SDS011;37751;52.408;12.536;2023-06-22T04:55:16;20.45;;;13.52;;
51664;SDS011;37751;52.408;12.536;2023-06-22T04:57:45;15.25;;;13.23;;
51664;SDS011;37751;52.408;12.536;2023-06-22T05:00:17;18.20;;;12.57;;
51664;SDS011;37751;52.408;12.536;2023-06-22T05:02:46;19.08;;;12.65;;
51664;SDS011;37751;52.408;12.536;2023-06-22T05:05:15;14.80;;;13.25;;
51664;SDS011;37751;52.408;12.536;2023-06-22T05:07:46;16.40;;;12.90;;
51664;SDS011;37751;52.408;12.536;2023-06-22T05:10:18;15.05;;;13.45;;
51664;SDS011;37751;52.408;12.536;2023-06-22T05:12:47;19.13;;;13.13;;
51664;SDS011;37751;52.408;12.536;2023-06-22T05:15:14;20.42;;;14.15;;
51664;SDS011;37751;52.408;12.536;2023-06-22T05:17:42;19.58;;;14.82;;
51664;SDS011;37751;52.408;12.536;2023-06-22T05:20:12;16.50;;;14.68;;
51664;SDS011;37751;52.408;12.536;2023-06-22T05:22:40;16.25;;;14.50;;
51664;SDS011;37751;52.408;12.536;2023-06-22T05:25:10;17.05;;;13.00;;
51664;SDS011;37751;52.408;12.536;2023-06-22T05:27:38;17.15;;;13.30;;
51664;SDS011;37751;52.408;12.536;2023-06-22T05:30:07;16.80;;;11.82;;
51664;SDS011;37751;52.408;12.536;2023-06-22T05:32:36;14.38;;;12.80;;
51664;SDS011;37751;52.408;12.536;2023-06-22T05:35:04;18.30;;;12.48;;
51664;SDS011;37751;52.408;12.536;2023-06-22T05:37:32;18.45;;;13.65;;
51664;SDS011;37751;52.408;12.536;2023-06-22T05:40:00;17.25;;;13.80;;
51664;SDS011;37751;52.408;12.536;2023-06-22T05:42:28;18.00;;;12.95;;
51664;SDS011;37751;52.408;12.536;2023-06-22T05:44:56;13.88;;;12.48;;
51664;SDS011;37751;52.408;12.536;2023-06-22T05:47:26;18.25;;;13.00;;
51664;SDS011;37751;52.408;12.536;2023-06-22T05:49:54;23.13;;;12.85;;
51664;SDS011;37751;52.408;12.536;2023-06-22T05:52:21;16.75;;;13.77;;
51664;SDS011;37751;52.408;12.536;2023-06-22T05:54:49;13.98;;;12.32;;
51664;SDS011;37751;52.408;12.536;2023-06-22T05:57:17;15.38;;;12.30;;
51664;SDS011;37751;52.408;12.536;2023-06-22T05:59:45;16.48;;;12.45;;
51664;SDS011;37751;52.408;12.536;2023-06-22T06:02:12;15.63;;;12.20;;
51664;SDS011;37751;52.408;12.536;2023-06-22T06:04:40;18.27;;;12.65;;
51664;SDS011;37751;52.408;12.536;2023-06-22T06:07:08;13.60;;;11.65;;
51664;SDS011;37751;52.408;12.536;2023-06-22T06:09:36;17.70;;;13.30;;
51664;SDS011;37751;52.408;12.536;2023-06-22T06:12:04;16.35;;;11.68;;
51664;SDS011;37751;52.408;12.536;2023-06-22T06:14:32;13.45;;;11.65;;
51664;SDS011;37751;52.408;12.536;2023-06-22T06:17:00;13.43;;;11.20;;
51664;SDS011;37751;52.408;12.536;2023-06-22T06:19:28;15.60;;;11.18;;
51664;SDS011;37751;52.408;12.536;2023-06-22T06:21:55;13.85;;;10.45;;
51664;SDS011;37751;52.408;12.536;2023-06-22T06:24:23;11.45;;;10.27;;
51664;SDS011;37751;52.408;12.536;2023-06-22T06:26:51;11.82;;;9.45;;
51664;SDS011;37751;52.408;12.536;2023-06-22T06:29:19;13.30;;;9.23;;
51664;SDS011;37751;52.408;12.536;2023-06-22T06:31:47;11.27;;;8.50;;
51664;SDS011;37751;52.408;12.536;2023-06-22T06:34:15;10.23;;;9.18;;
51664;SDS011;37751;52.408;12.536;2023-06-22T06:36:43;11.30;;;8.48;;
51664;SDS011;37751;52.408;12.536;2023-06-22T06:39:12;9.85;;;8.85;;
51664;SDS011;37751;52.408;12.536;2023-06-22T06:41:40;12.13;;;8.32;;
51664;SDS011;37751;52.408;12.536;2023-06-22T06:44:14;14.25;;;9.07;;
51664;SDS011;37751;52.408;12.536;2023-06-22T06:46:42;15.52;;;10.13;;
51664;SDS011;37751;52.408;12.536;2023-06-22T06:49:10;12.70;;;8.73;;
51664;SDS011;37751;52.408;12.536;2023-06-22T06:51:39;13.98;;;7.80;;
51664;SDS011;37751;52.408;12.536;2023-06-22T06:54:07;10.88;;;7.30;;
51664;SDS011;37751;52.408;12.536;2023-06-22T06:56:35;13.32;;;7.55;;
51664;SDS011;37751;52.408;12.536;2023-06-22T06:59:03;10.27;;;6.43;;
51664;SDS011;37751;52.408;12.536;2023-06-22T07:01:31;9.80;;;6.20;;
51664;SDS011;37751;52.408;12.536;2023-06-22T07:04:01;7.50;;;5.90;;
51664;SDS011;37751;52.408;12.536;2023-06-22T07:06:29;8.15;;;5.90;;
51664;SDS011;37751;52.408;12.536;2023-06-22T07:08:59;7.55;;;6.20;;
51664;SDS011;37751;52.408;12.536;2023-06-22T07:11:28;9.57;;;6.43;;
51664;SDS011;37751;52.408;12.536;2023-06-22T07:13:56;10.48;;;6.47;;
51664;SDS011;37751;52.408;12.536;2023-06-22T07:16:24;9.07;;;6.50;;
51664;SDS011;37751;52.408;12.536;2023-06-22T07:18:53;9.93;;;5.57;;
51664;SDS011;37751;52.408;12.536;2023-06-22T07:21:20;9.55;;;6.05;;
51664;SDS011;37751;52.408;12.536;2023-06-22T07:23:48;6.90;;;5.68;;
51664;SDS011;37751;52.408;12.536;2023-06-22T07:26:16;9.73;;;5.88;;
51664;SDS011;37751;52.408;12.536;2023-06-22T07:28:44;5.75;;;5.13;;
51664;SDS011;37751;52.408;12.536;2023-06-22T07:31:12;6.47;;;5.32;;
51664;SDS011;37751;52.408;12.536;2023-06-22T07:33:39;5.72;;;4.63;;
51664;SDS011;37751;52.408;12.536;2023-06-22T07:36:07;13.63;;;5.60;;
51664;SDS011;37751;52.408;12.536;2023-06-22T07:38:35;7.10;;;5.40;;
51664;SDS011;37751;52.408;12.536;2023-06-22T07:41:03;9.63;;;5.70;;
51664;SDS011;37751;52.408;12.536;2023-06-22T07:43:37;6.30;;;5.10;;
51664;SDS011;37751;52.408;12.536;2023-06-22T07:46:05;7.50;;;6.07;;
51664;SDS011;37751;52.408;12.536;2023-06-22T07:48:33;8.18;;;5.47;;
51664;SDS011;37751;52.408;12.536;2023-06-22T07:51:05;6.82;;;4.97;;
51664;SDS011;37751;52.408;12.536;2023-06-22T07:53:33;6.07;;;5.22;;
51664;SDS011;37751;52.408;12.536;2023-06-22T07:56:01;7.93;;;5.55;;
51664;SDS011;37751;52.408;12.536;2023-06-22T07:58:34;7.82;;;4.88;;
51664;SDS011;37751;52.408;12.536;2023-06-22T08:01:02;7.93;;;5.13;;
51664;SDS011;37751;52.408;12.536;2023-06-22T08:03:30;6.07;;;5.18;;
51664;SDS011;37751;52.408;12.536;2023-06-22T08:05:58;10.95;;;4.90;;
51664;SDS011;37751;52.408;12.536;2023-06-22T08:08:27;7.22;;;5.00;;
51664;SDS011;37751;52.408;12.536;2023-06-22T08:10:54;7.95;;;5.53;;
51664;SDS011;37751;52.408;12.536;2023-06-22T08:13:23;6.47;;;5.57;;
51664;SDS011;37751;52.408;12.536;2023-06-22T08:15:51;7.47;;;4.72;;
51664;SDS011;37751;52.408;12.536;2023-06-22T08:18:20;8.10;;;5.07;;
51664;SDS011;37751;52.408;12.536;2023-06-22T08:20:47;5.35;;;4.85;;
51664;SDS011;37751;52.408;12.536;2023-06-22T08:23:15;8.43;;;4.80;;
51664;SDS011;37751;52.408;12.536;2023-06-22T08:25:44;7.55;;;4.30;;
51664;SDS011;37751;52.408;12.536;2023-06-22T08:28:13;5.95;;;4.47;;
51664;SDS011;37751;52.408;12.536;2023-06-22T08:30:43;8.52;;;4.47;;
51664;SDS011;37751;52.408;12.536;2023-06-22T08:33:11;5.05;;;4.43;;
51664;SDS011;37751;52.408;12.536;2023-06-22T08:35:49;12.23;;;9.23;;
51664;SDS011;37751;52.408;12.536;2023-06-22T08:38:17;16.55;;;9.10;;
51664;SDS011;37751;52.408;12.536;2023-06-22T08:40:46;8.32;;;6.72;;
51664;SDS011;37751;52.408;12.536;2023-06-22T08:43:14;6.18;;;4.75;;
51664;SDS011;37751;52.408;12.536;2023-06-22T08:45:42;8.23;;;5.18;;
51664;SDS011;37751;52.408;12.536;2023-06-22T08:48:11;8.70;;;5.13;;
51664;SDS011;37751;52.408;12.536;2023-06-22T08:50:41;6.20;;;4.60;;
51664;SDS011;37751;52.408;12.536;2023-06-22T08:53:09;8.93;;;4.53;;
51664;SDS011;37751;52.408;12.536;2023-06-22T08:55:37;6.53;;;4.60;;
51664;SDS011;37751;52.408;12.536;2023-06-22T08:58:05;4.15;;;3.78;;
51664;SDS011;37751;52.408;12.536;2023-06-22T09:00:33;6.43;;;4.10;;
51664;SDS011;37751;52.408;12.536;2023-06-22T09:03:02;4.78;;;3.88;;
51664;SDS011;37751;52.408;12.536;2023-06-22T09:05:30;10.35;;;3.90;;
51664;SDS011;37751;52.408;12.536;2023-06-22T09:07:59;8.95;;;4.05;;
51664;SDS011;37751;52.408;12.536;2023-06-22T09:10:26;7.30;;;3.95;;
51664;SDS011;37751;52.408;12.536;2023-06-22T09:12:55;7.18;;;4.30;;
51664;SDS011;37751;52.408;12.536;2023-06-22T09:15:24;6.43;;;4.22;;
51664;SDS011;37751;52.408;12.536;2023-06-22T09:17:52;9.23;;;4.38;;
51664;SDS011;37751;52.408;12.536;2023-06-22T09:20:21;4.85;;;3.85;;
51664;SDS011;37751;52.408;12.536;2023-06-22T09:22:49;4.45;;;4.03;;
51664;SDS011;37751;52.408;12.536;2023-06-22T09:25:21;4.30;;;3.90;;
51664;SDS011;37751;52.408;12.536;2023-06-22T09:27:49;5.38;;;4.60;;
51664;SDS011;37751;52.408;12.536;2023-06-22T09:30:18;4.80;;;3.90;;
51664;SDS011;37751;52.408;12.536;2023-06-22T09:32:46;6.00;;;3.88;;
51664;SDS011;37751;52.408;12.536;2023-06-22T09:35:14;5.90;;;4.70;;
51664;SDS011;37751;52.408;12.536;2023-06-22T09:37:42;6.85;;;4.68;;
51664;SDS011;37751;52.408;12.536;2023-06-22T09:40:10;6.05;;;4.68;;
51664;SDS011;37751;52.408;12.536;2023-06-22T09:42:42;7.65;;;4.85;;
51664;SDS011;37751;52.408;12.536;2023-06-22T09:45:10;8.30;;;4.88;;
51664;SDS011;37751;52.408;12.536;2023-06-22T09:47:38;6.38;;;4.70;;
51664;SDS011;37751;52.408;12.536;2023-06-22T09:50:09;10.60;;;4.80;;
51664;SDS011;37751;52.408;12.536;2023-06-22T09:52:37;8.45;;;4.53;;
51664;SDS011;37751;52.408;12.536;2023-06-22T09:55:11;5.15;;;4.05;;
51664;SDS011;37751;52.408;12.536;2023-06-22T09:57:44;5.45;;;4.78;;
51664;SDS011;37751;52.408;12.536;2023-06-22T10:00:11;8.95;;;4.80;;
51664;SDS011;37751;52.408;12.536;2023-06-22T10:02:44;5.97;;;5.18;;
51664;SDS011;37751;52.408;12.536;2023-06-22T10:05:12;5.00;;;4.45;;
51664;SDS011;37751;52.408;12.536;2023-06-22T10:07:40;8.55;;;5.00;;
51664;SDS011;37751;52.408;12.536;2023-06-22T10:10:11;5.50;;;4.60;;
51664;SDS011;37751;52.408;12.536;2023-06-22T10:12:47;12.55;;;4.70;;
51664;SDS011;37751;52.408;12.536;2023-06-22T10:15:24;6.07;;;4.53;;
51664;SDS011;37751;52.408;12.536;2023-06-22T10:17:55;7.82;;;4.55;;
51664;SDS011;37751;52.408;12.536;2023-06-22T10:20:23;5.88;;;4.20;;
51664;SDS011;37751;52.408;12.536;2023-06-22T10:22:51;5.38;;;4.68;;
51664;SDS011;37751;52.408;12.536;2023-06-22T10:25:19;6.70;;;4.18;;
51664;SDS011;37751;52.408;12.536;2023-06-22T10:27:48;5.18;;;4.45;;
51664;SDS011;37751;52.408;12.536;2023-06-22T10:30:16;4.90;;;4.40;;
51664;SDS011;37751;52.408;12.536;2023-06-22T10:32:45;5.53;;;4.63;;
51664;SDS011;37751;52.408;12.536;2023-06-22T10:35:13;6.15;;;4.40;;
51664;SDS011;37751;52.408;12.536;2023-06-22T10:37:43;4.97;;;4.50;;
51664;SDS011;37751;52.408;12.536;2023-06-22T10:40:13;5.28;;;4.55;;
51664;SDS011;37751;52.408;12.536;2023-06-22T10:42:43;5.85;;;5.22;;
51664;SDS011;37751;52.408;12.536;2023-06-22T10:45:11;6.75;;;5.35;;
51664;SDS011;37751;52.408;12.536;2023-06-22T10:47:39;5.57;;;4.45;;
51664;SDS011;37751;52.408;12.536;2023-06-22T10:50:09;6.93;;;4.45;;
51664;SDS011;37751;52.408;12.536;2023-06-22T10:52:37;5.18;;;4.68;;
51664;SDS011;37751;52.408;12.536;2023-06-22T10:55:05;6.13;;;4.50;;
51664;SDS011;37751;52.408;12.536;2023-06-22T10:57:34;8.02;;;4.18;;
51664;SDS011;37751;52.408;12.536;2023-06-22T11:00:02;5.70;;;4.80;;
51664;SDS011;37751;52.408;12.536;2023-06-22T11:02:33;7.78;;;4.15;;
51664;SDS011;37751;52.408;12.536;2023-06-22T11:05:04;5.60;;;4.57;;
51664;SDS011;37751;52.408;12.536;2023-06-22T11:07:33;7.05;;;4.88;;
51664;SDS011;37751;52.408;12.536;2023-06-22T11:10:01;5.05;;;4.35;;
51664;SDS011;37751;52.408;12.536;2023-06-22T11:12:29;6.40;;;5.28;;
51664;SDS011;37751;52.408;12.536;2023-06-22T11:14:57;8.40;;;5.40;;
51664;SDS011;37751;52.408;12.536;2023-06-22T11:17:26;7.22;;;4.47;;
51664;SDS011;37751;52.408;12.536;2023-06-22T11:19:54;6.78;;;4.90;;
51664;SDS011;37751;52.408;12.536;2023-06-22T11:22:22;9.38;;;4.88;;
51664;SDS011;37751;52.408;12.536;2023-06-22T11:24:49;5.65;;;5.05;;
51664;SDS011;37751;52.408;12.536;2023-06-22T11:27:17;6.97;;;4.40;;
51664;SDS011;37751;52.408;12.536;2023-06-22T11:29:45;6.18;;;5.03;;
51664;SDS011;37751;52.408;12.536;2023-06-22T11:32:13;6.15;;;4.40;;
51664;SDS011;37751;52.408;12.536;2023-06-22T11:34:41;7.70;;;4.72;;
51664;SDS011;37751;52.408;12.536;2023-06-22T11:37:09;6.47;;;5.18;;
51664;SDS011;37751;52.408;12.536;2023-06-22T11:39:37;5.82;;;4.90;;
51664;SDS011;37751;52.408;12.536;2023-06-22T11:42:14;6.57;;;5.30;;
51664;SDS011;37751;52.408;12.536;2023-06-22T11:44:42;6.05;;;4.60;;
51664;SDS011;37751;52.408;12.536;2023-06-22T11:47:11;5.70;;;5.15;;
51664;SDS011;37751;52.408;12.536;2023-06-22T11:49:39;8.80;;;5.00;;
51664;SDS011;37751;52.408;12.536;2023-06-22T11:52:07;6.55;;;5.55;;
51664;SDS011;37751;52.408;12.536;2023-06-22T11:54:37;7.00;;;4.88;;
51664;SDS011;37751;52.408;12.536;2023-06-22T11:57:06;5.88;;;4.90;;
51664;SDS011;37751;52.408;12.536;2023-06-22T11:59:33;5.25;;;4.75;;
51664;SDS011;37751;52.408;12.536;2023-06-22T12:02:01;6.38;;;5.10;;
51664;SDS011;37751;52.408;12.536;2023-06-22T12:04:30;7.68;;;5.63;;
51664;SDS011;37751;52.408;12.536;2023-06-22T12:06:58;6.97;;;5.53;;
51664;SDS011;37751;52.408;12.536;2023-06-22T12:09:27;10.73;;;5.80;;
51664;SDS011;37751;52.408;12.536;2023-06-22T12:11:55;6.43;;;5.85;;
51664;SDS011;37751;52.408;12.536;2023-06-22T12:14:23;6.70;;;5.95;;
51664;SDS011;37751;52.408;12.536;2023-06-22T12:16:51;6.75;;;5.55;;
51664;SDS011;37751;52.408;12.536;2023-06-22T12:19:18;7.95;;;5.45;;
51664;SDS011;37751;52.408;12.536;2023-06-22T12:21:55;6.75;;;6.05;;
51664;SDS011;37751;52.408;12.536;2023-06-22T12:24:23;8.75;;;7.13;;
51664;SDS011;37751;52.408;12.536;2023-06-22T12:26:51;7.53;;;6.53;;
51664;SDS011;37751;52.408;12.536;2023-06-22T12:29:22;9.32;;;6.90;;
51664;SDS011;37751;52.408;12.536;2023-06-22T12:31:50;10.18;;;7.60;;
51664;SDS011;37751;52.408;12.536;2023-06-22T12:34:18;6.22;;;5.65;;
51664;SDS011;37751;52.408;12.536;2023-06-22T12:36:46;9.35;;;5.50;;
51664;SDS011;37751;52.408;12.536;2023-06-22T12:39:15;8.32;;;6.00;;
51664;SDS011;37751;52.408;12.536;2023-06-22T12:41:43;5.97;;;5.47;;
51664;SDS011;37751;52.408;12.536;2023-06-22T12:44:11;6.18;;;5.57;;
51664;SDS011;37751;52.408;12.536;2023-06-22T12:46:39;6.03;;;5.43;;
51664;SDS011;37751;52.408;12.536;2023-06-22T12:49:07;6.85;;;5.72;;
51664;SDS011;37751;52.408;12.536;2023-06-22T12:51:39;6.43;;;5.82;;
51664;SDS011;37751;52.408;12.536;2023-06-22T12:54:11;8.38;;;6.75;;
51664;SDS011;37751;52.408;12.536;2023-06-22T12:56:39;6.20;;;5.55;;
51664;SDS011;37751;52.408;12.536;2023-06-22T12:59:07;7.85;;;6.07;;
51664;SDS011;37751;52.408;12.536;2023-06-22T13:01:35;6.43;;;5.43;;
51664;SDS011;37751;52.408;12.536;2023-06-22T13:04:03;12.60;;;5.10;;
51664;SDS011;37751;52.408;12.536;2023-06-22T13:06:33;10.95;;;5.28;;
51664;SDS011;37751;52.408;12.536;2023-06-22T13:09:01;8.52;;;5.60;;
51664;SDS011;37751;52.408;12.536;2023-06-22T13:11:35;9.57;;;5.53;;
51664;SDS011;37751;52.408;12.536;2023-06-22T13:14:03;6.35;;;5.43;;
51664;SDS011;37751;52.408;12.536;2023-06-22T13:16:33;8.70;;;5.65;;
51664;SDS011;37751;52.408;12.536;2023-06-22T13:19:01;6.75;;;5.40;;
51664;SDS011;37751;52.408;12.536;2023-06-22T13:21:30;8.85;;;6.43;;
51664;SDS011;37751;52.408;12.536;2023-06-22T13:23:58;8.07;;;4.90;;
51664;SDS011;37751;52.408;12.536;2023-06-22T13:26:26;7.68;;;5.78;;
51664;SDS011;37751;52.408;12.536;2023-06-22T13:28:56;7.30;;;4.85;;
51664;SDS011;37751;52.408;12.536;2023-06-22T13:31:23;6.00;;;5.43;;
51664;SDS011;37751;52.408;12.536;2023-06-22T13:33:51;5.78;;;5.20;;
51664;SDS011;37751;52.408;12.536;2023-06-22T13:36:19;5.75;;;5.25;;
51664;SDS011;37751;52.408;12.536;2023-06-22T13:38:49;5.97;;;5.38;;
51664;SDS011;37751;52.408;12.536;2023-06-22T13:41:16;5.90;;;5.40;;
51664;SDS011;37751;52.408;12.536;2023-06-22T13:43:44;5.60;;;5.10;;
51664;SDS011;37751;52.408;12.536;2023-06-22T13:46:15;5.95;;;5.35;;
51664;SDS011;37751;52.408;12.536;2023-06-22T13:48:43;5.90;;;5.07;;
51664;SDS011;37751;52.408;12.536;2023-06-22T13:51:11;6.03;;;5.40;;
51664;SDS011;37751;52.408;12.536;2023-06-22T13:53:38;7.60;;;5.57;;
51664;SDS011;37751;52.408;12.536;2023-06-22T13:56:06;8.68;;;5.38;;
51664;SDS011;37751;52.408;12.536;2023-06-22T13:58:34;5.82;;;5.15;;
51664;SDS011;37751;52.408;12.536;2023-06-22T14:01:02;5.80;;;5.30;;
51664;SDS011;37751;52.408;12.536;2023-06-22T14:03:30;5.20;;;4.75;;
51664;SDS011;37751;52.408;12.536;2023-06-22T14:05:58;5.47;;;4.75;;
51664;SDS011;37751;52.408;12.536;2023-06-22T14:08:26;6.00;;;5.50;;
51664;SDS011;37751;52.408;12.536;2023-06-22T14:10:57;6.35;;;5.05;;
51664;SDS011;37751;52.408;12.536;2023-06-22T14:13:24;6.10;;;5.22;;
51664;SDS011;37751;52.408;12.536;2023-06-22T14:15:52;9.32;;;5.38;;
51664;SDS011;37751;52.408;12.536;2023-06-22T14:18:21;6.18;;;5.25;;
51664;SDS011;37751;52.408;12.536;2023-06-22T14:20:52;5.90;;;5.40;;
51664;SDS011;37751;52.408;12.536;2023-06-22T14:23:20;9.32;;;5.10;;
51664;SDS011;37751;52.408;12.536;2023-06-22T14:25:48;5.68;;;5.03;;
51664;SDS011;37751;52.408;12.536;2023-06-22T14:28:16;6.30;;;5.65;;
51664;SDS011;37751;52.408;12.536;2023-06-22T14:30:44;6.30;;;4.97;;
51664;SDS011;37751;52.408;12.536;2023-06-22T14:33:12;7.03;;;4.72;;
51664;SDS011;37751;52.408;12.536;2023-06-22T14:35:40;6.38;;;5.65;;
51664;SDS011;37751;52.408;12.536;2023-06-22T14:38:08;5.97;;;5.47;;
51664;SDS011;37751;52.408;12.536;2023-06-22T14:40:36;5.90;;;5.40;;
51664;SDS011;37751;52.408;12.536;2023-06-22T14:43:24;7.90;;;5.50;;
51664;SDS011;37751;52.408;12.536;2023-06-22T14:45:52;6.82;;;5.75;;
51664;SDS011;37751;52.408;12.536;2023-06-22T14:48:20;10.73;;;5.32;;
51664;SDS011;37751;52.408;12.536;2023-06-22T14:50:48;6.32;;;5.70;;
51664;SDS011;37751;52.408;12.536;2023-06-22T14:53:16;8.95;;;5.32;;